sensor_id;sensor_type;location;lat;lon;timestamp;P1;durP1;ratioP1;P2;durP2;ratioP2
42414;SDS011;28058;46.344;17.786;2023-09-18T00:00:33;12.73;;;10.80;;
42414;SDS011;28058;46.344;17.786;2023-09-18T00:03:01;10.60;;;9.50;;
42414;SDS011;28058;46.344;17.786;2023-09-18T00:05:30;14.40;;;10.32;;
42414;SDS011;28058;46.344;17.786;2023-09-18T00:07:57;12.32;;;10.65;;
42414;SDS011;28058;46.344;17.786;2023-09-18T00:10:25;12.20;;;10.35;;
42414;SDS011;28058;46.344;17.786;2023-09-18T00:12:53;12.55;;;10.80;;
42414;SDS011;28058;46.344;17.786;2023-09-18T00:15:20;13.13;;;11.48;;
42414;SDS011;28058;46.344;17.786;2023-09-18T00:17:47;12.45;;;10.68;;
42414;SDS011;28058;46.344;17.786;2023-09-18T00:20:14;11.85;;;10.48;;
42414;SDS011;28058;46.344;17.786;2023-09-18T00:22:44;15.82;;;11.40;;
42414;SDS011;28058;46.344;17.786;2023-09-18T00:25:11;13.20;;;10.88;;
42414;SDS011;28058;46.344;17.786;2023-09-18T00:27:38;12.95;;;10.43;;
42414;SDS011;28058;46.344;17.786;2023-09-18T00:30:05;13.20;;;11.02;;
42414;SDS011;28058;46.344;17.786;2023-09-18T00:32:33;19.40;;;15.45;;
42414;SDS011;28058;46.344;17.786;2023-09-18T00:35:00;16.88;;;14.05;;
42414;SDS011;28058;46.344;17.786;2023-09-18T00:37:28;15.38;;;12.57;;
42414;SDS011;28058;46.344;17.786;2023-09-18T00:39:55;17.17;;;11.38;;
42414;SDS011;28058;46.344;17.786;2023-09-18T00:42:22;13.07;;;10.55;;
42414;SDS011;28058;46.344;17.786;2023-09-18T00:44:51;12.70;;;11.40;;
42414;SDS011;28058;46.344;17.786;2023-09-18T00:47:17;12.30;;;10.30;;
42414;SDS011;28058;46.344;17.786;2023-09-18T00:49:46;13.02;;;11.52;;
42414;SDS011;28058;46.344;17.786;2023-09-18T00:52:15;12.32;;;10.90;;
42414;SDS011;28058;46.344;17.786;2023-09-18T00:54:44;14.93;;;11.57;;
42414;SDS011;28058;46.344;17.786;2023-09-18T00:57:13;13.43;;;11.02;;
42414;SDS011;28058;46.344;17.786;2023-09-18T00:59:40;14.77;;;13.18;;
42414;SDS011;28058;46.344;17.786;2023-09-18T01:02:07;15.63;;;12.35;;
42414;SDS011;28058;46.344;17.786;2023-09-18T01:04:35;16.52;;;13.15;;
42414;SDS011;28058;46.344;17.786;2023-09-18T01:07:03;14.38;;;12.65;;
42414;SDS011;28058;46.344;17.786;2023-09-18T01:09:31;14.13;;;12.48;;
42414;SDS011;28058;46.344;17.786;2023-09-18T01:17:34;14.50;;;12.90;;
42414;SDS011;28058;46.344;17.786;2023-09-18T01:20:10;17.20;;;12.98;;
42414;SDS011;28058;46.344;17.786;2023-09-18T01:22:38;14.65;;;12.88;;
42414;SDS011;28058;46.344;17.786;2023-09-18T01:25:06;15.30;;;13.70;;
42414;SDS011;28058;46.344;17.786;2023-09-18T01:27:34;15.25;;;13.70;;
42414;SDS011;28058;46.344;17.786;2023-09-18T01:30:01;17.13;;;13.80;;
42414;SDS011;28058;46.344;17.786;2023-09-18T01:32:30;16.92;;;14.60;;
42414;SDS011;28058;46.344;17.786;2023-09-18T01:34:59;15.50;;;13.88;;
42414;SDS011;28058;46.344;17.786;2023-09-18T01:37:29;16.17;;;14.07;;
42414;SDS011;28058;46.344;17.786;2023-09-18T01:39:58;15.27;;;12.48;;
42414;SDS011;28058;46.344;17.786;2023-09-18T01:42:26;16.42;;;13.48;;
42414;SDS011;28058;46.344;17.786;2023-09-18T01:44:54;16.50;;;13.82;;
42414;SDS011;28058;46.344;17.786;2023-09-18T01:47:22;15.65;;;13.27;;
42414;SDS011;28058;46.344;17.786;2023-09-18T01:49:55;17.30;;;13.20;;
42414;SDS011;28058;46.344;17.786;2023-09-18T01:52:23;18.05;;;14.88;;
42414;SDS011;28058;46.344;17.786;2023-09-18T01:54:50;16.20;;;12.90;;
42414;SDS011;28058;46.344;17.786;2023-09-18T01:57:17;15.90;;;13.38;;
42414;SDS011;28058;46.344;17.786;2023-09-18T01:59:44;17.15;;;13.35;;
42414;SDS011;28058;46.344;17.786;2023-09-18T02:02:13;16.10;;;14.10;;
42414;SDS011;28058;46.344;17.786;2023-09-18T02:04:46;22.35;;;15.43;;
42414;SDS011;28058;46.344;17.786;2023-09-18T02:07:30;25.67;;;15.23;;
42414;SDS011;28058;46.344;17.786;2023-09-18T02:09:58;21.15;;;16.33;;
42414;SDS011;28058;46.344;17.786;2023-09-18T02:12:26;18.33;;;15.18;;
42414;SDS011;28058;46.344;17.786;2023-09-18T02:14:53;18.67;;;15.93;;
42414;SDS011;28058;46.344;17.786;2023-09-18T02:17:20;19.80;;;15.60;;
42414;SDS011;28058;46.344;17.786;2023-09-18T02:19:47;18.45;;;15.68;;
42414;SDS011;28058;46.344;17.786;2023-09-18T02:22:14;23.83;;;17.92;;
42414;SDS011;28058;46.344;17.786;2023-09-18T02:24:41;20.38;;;16.73;;
42414;SDS011;28058;46.344;17.786;2023-09-18T02:27:08;20.30;;;16.77;;
42414;SDS011;28058;46.344;17.786;2023-09-18T02:29:37;18.95;;;16.45;;
42414;SDS011;28058;46.344;17.786;2023-09-18T02:32:04;19.98;;;15.98;;
42414;SDS011;28058;46.344;17.786;2023-09-18T02:34:31;17.35;;;15.52;;
42414;SDS011;28058;46.344;17.786;2023-09-18T02:37:00;24.83;;;16.25;;
42414;SDS011;28058;46.344;17.786;2023-09-18T02:39:27;17.67;;;15.77;;
42414;SDS011;28058;46.344;17.786;2023-09-18T02:41:54;18.02;;;16.08;;
42414;SDS011;28058;46.344;17.786;2023-09-18T02:44:21;21.83;;;18.42;;
42414;SDS011;28058;46.344;17.786;2023-09-18T02:46:48;23.58;;;18.63;;
42414;SDS011;28058;46.344;17.786;2023-09-18T02:49:15;21.02;;;18.13;;
42414;SDS011;28058;46.344;17.786;2023-09-18T02:51:42;19.17;;;15.90;;
42414;SDS011;28058;46.344;17.786;2023-09-18T02:54:09;21.75;;;16.67;;
42414;SDS011;28058;46.344;17.786;2023-09-18T02:56:36;19.60;;;16.08;;
42414;SDS011;28058;46.344;17.786;2023-09-18T02:59:04;16.13;;;14.18;;
42414;SDS011;28058;46.344;17.786;2023-09-18T03:01:32;20.45;;;16.90;;
42414;SDS011;28058;46.344;17.786;2023-09-18T03:03:59;26.17;;;19.25;;
42414;SDS011;28058;46.344;17.786;2023-09-18T03:06:26;19.90;;;17.70;;
42414;SDS011;28058;46.344;17.786;2023-09-18T03:08:53;23.38;;;18.95;;
42414;SDS011;28058;46.344;17.786;2023-09-18T03:11:20;22.35;;;17.60;;
42414;SDS011;28058;46.344;17.786;2023-09-18T03:13:47;23.27;;;18.25;;
42414;SDS011;28058;46.344;17.786;2023-09-18T03:16:15;23.05;;;17.30;;
42414;SDS011;28058;46.344;17.786;2023-09-18T03:18:42;22.60;;;19.27;;
42414;SDS011;28058;46.344;17.786;2023-09-18T03:21:09;22.45;;;18.48;;
42414;SDS011;28058;46.344;17.786;2023-09-18T03:23:36;26.48;;;19.27;;
42414;SDS011;28058;46.344;17.786;2023-09-18T03:26:03;21.30;;;18.45;;
42414;SDS011;28058;46.344;17.786;2023-09-18T03:28:30;23.27;;;19.88;;
42414;SDS011;28058;46.344;17.786;2023-09-18T03:30:58;27.27;;;20.98;;
42414;SDS011;28058;46.344;17.786;2023-09-18T03:33:25;25.40;;;19.55;;
42414;SDS011;28058;46.344;17.786;2023-09-18T03:35:52;22.27;;;19.05;;
42414;SDS011;28058;46.344;17.786;2023-09-18T03:38:21;25.67;;;19.70;;
42414;SDS011;28058;46.344;17.786;2023-09-18T03:40:49;24.92;;;20.83;;
42414;SDS011;28058;46.344;17.786;2023-09-18T03:43:16;24.13;;;19.98;;
42414;SDS011;28058;46.344;17.786;2023-09-18T03:45:44;23.40;;;20.08;;
42414;SDS011;28058;46.344;17.786;2023-09-18T03:48:11;28.38;;;20.60;;
42414;SDS011;28058;46.344;17.786;2023-09-18T03:50:38;27.42;;;21.73;;
42414;SDS011;28058;46.344;17.786;2023-09-18T03:53:07;27.38;;;22.30;;
42414;SDS011;28058;46.344;17.786;2023-09-18T03:55:34;31.95;;;23.20;;
42414;SDS011;28058;46.344;17.786;2023-09-18T03:58:01;26.38;;;22.48;;
42414;SDS011;28058;46.344;17.786;2023-09-18T04:00:28;29.02;;;23.48;;
42414;SDS011;28058;46.344;17.786;2023-09-18T04:02:55;28.55;;;23.55;;
42414;SDS011;28058;46.344;17.786;2023-09-18T04:05:22;29.55;;;23.17;;
42414;SDS011;28058;46.344;17.786;2023-09-18T04:07:50;28.88;;;23.67;;
42414;SDS011;28058;46.344;17.786;2023-09-18T04:10:18;28.83;;;23.63;;
42414;SDS011;28058;46.344;17.786;2023-09-18T04:12:50;27.17;;;23.20;;
42414;SDS011;28058;46.344;17.786;2023-09-18T04:15:18;28.08;;;23.35;;
42414;SDS011;28058;46.344;17.786;2023-09-18T04:17:46;25.95;;;22.63;;
42414;SDS011;28058;46.344;17.786;2023-09-18T04:20:14;25.77;;;22.98;;
42414;SDS011;28058;46.344;17.786;2023-09-18T04:22:43;28.27;;;22.23;;
42414;SDS011;28058;46.344;17.786;2023-09-18T04:25:12;30.33;;;23.92;;
42414;SDS011;28058;46.344;17.786;2023-09-18T04:27:40;27.20;;;21.95;;
42414;SDS011;28058;46.344;17.786;2023-09-18T04:30:07;28.63;;;23.45;;
42414;SDS011;28058;46.344;17.786;2023-09-18T04:32:36;26.35;;;21.58;;
42414;SDS011;28058;46.344;17.786;2023-09-18T04:35:04;26.20;;;20.08;;
42414;SDS011;28058;46.344;17.786;2023-09-18T04:37:36;24.15;;;20.80;;
42414;SDS011;28058;46.344;17.786;2023-09-18T04:40:05;24.08;;;20.05;;
42414;SDS011;28058;46.344;17.786;2023-09-18T04:42:37;24.85;;;19.77;;
42414;SDS011;28058;46.344;17.786;2023-09-18T04:45:06;24.63;;;18.73;;
42414;SDS011;28058;46.344;17.786;2023-09-18T04:47:33;24.60;;;18.83;;
42414;SDS011;28058;46.344;17.786;2023-09-18T04:50:00;24.10;;;18.65;;
42414;SDS011;28058;46.344;17.786;2023-09-18T04:52:35;21.98;;;19.23;;
42414;SDS011;28058;46.344;17.786;2023-09-18T04:55:02;23.65;;;19.30;;
42414;SDS011;28058;46.344;17.786;2023-09-18T04:57:32;22.08;;;19.02;;
42414;SDS011;28058;46.344;17.786;2023-09-18T05:00:01;22.38;;;19.05;;
42414;SDS011;28058;46.344;17.786;2023-09-18T05:02:42;23.67;;;19.80;;
42414;SDS011;28058;46.344;17.786;2023-09-18T05:05:09;26.23;;;20.27;;
42414;SDS011;28058;46.344;17.786;2023-09-18T05:07:37;23.48;;;19.92;;
42414;SDS011;28058;46.344;17.786;2023-09-18T05:10:04;23.00;;;18.65;;
42414;SDS011;28058;46.344;17.786;2023-09-18T05:12:31;25.30;;;18.90;;
42414;SDS011;28058;46.344;17.786;2023-09-18T05:14:58;25.67;;;19.63;;
42414;SDS011;28058;46.344;17.786;2023-09-18T05:17:45;26.10;;;21.23;;
42414;SDS011;28058;46.344;17.786;2023-09-18T05:20:15;28.80;;;20.70;;
42414;SDS011;28058;46.344;17.786;2023-09-18T05:22:44;29.92;;;21.33;;
42414;SDS011;28058;46.344;17.786;2023-09-18T05:25:12;26.73;;;20.88;;
42414;SDS011;28058;46.344;17.786;2023-09-18T05:27:42;34.40;;;21.73;;
42414;SDS011;28058;46.344;17.786;2023-09-18T05:30:13;25.48;;;20.98;;
42414;SDS011;28058;46.344;17.786;2023-09-18T05:32:42;31.77;;;22.55;;
42414;SDS011;28058;46.344;17.786;2023-09-18T05:35:10;28.60;;;22.73;;
42414;SDS011;28058;46.344;17.786;2023-09-18T05:37:40;32.22;;;22.75;;
42414;SDS011;28058;46.344;17.786;2023-09-18T05:40:09;25.38;;;21.02;;
42414;SDS011;28058;46.344;17.786;2023-09-18T05:42:40;24.80;;;18.90;;
42414;SDS011;28058;46.344;17.786;2023-09-18T05:45:12;24.75;;;19.83;;
42414;SDS011;28058;46.344;17.786;2023-09-18T05:47:41;23.35;;;19.02;;
42414;SDS011;28058;46.344;17.786;2023-09-18T05:50:10;24.20;;;18.90;;
42414;SDS011;28058;46.344;17.786;2023-09-18T05:52:43;23.65;;;18.75;;
42414;SDS011;28058;46.344;17.786;2023-09-18T05:55:11;28.25;;;20.70;;
42414;SDS011;28058;46.344;17.786;2023-09-18T05:57:39;30.52;;;20.67;;
42414;SDS011;28058;46.344;17.786;2023-09-18T06:00:06;23.35;;;19.50;;
42414;SDS011;28058;46.344;17.786;2023-09-18T06:02:33;26.63;;;19.95;;
42414;SDS011;28058;46.344;17.786;2023-09-18T06:05:01;23.10;;;17.92;;
42414;SDS011;28058;46.344;17.786;2023-09-18T06:07:29;24.10;;;17.60;;
42414;SDS011;28058;46.344;17.786;2023-09-18T06:09:57;20.13;;;17.15;;
42414;SDS011;28058;46.344;17.786;2023-09-18T06:12:25;21.52;;;16.92;;
42414;SDS011;28058;46.344;17.786;2023-09-18T06:14:52;21.50;;;16.35;;
42414;SDS011;28058;46.344;17.786;2023-09-18T06:17:19;21.77;;;18.10;;
42414;SDS011;28058;46.344;17.786;2023-09-18T06:19:46;32.53;;;22.58;;
42414;SDS011;28058;46.344;17.786;2023-09-18T06:22:13;30.23;;;20.73;;
42414;SDS011;28058;46.344;17.786;2023-09-18T06:24:41;22.33;;;15.00;;
42414;SDS011;28058;46.344;17.786;2023-09-18T06:27:08;19.02;;;14.07;;
42414;SDS011;28058;46.344;17.786;2023-09-18T06:29:35;16.48;;;13.32;;
42414;SDS011;28058;46.344;17.786;2023-09-18T06:32:05;17.73;;;12.63;;
42414;SDS011;28058;46.344;17.786;2023-09-18T06:34:33;14.32;;;12.30;;
42414;SDS011;28058;46.344;17.786;2023-09-18T06:37:00;14.77;;;11.57;;
42414;SDS011;28058;46.344;17.786;2023-09-18T06:39:27;17.58;;;10.75;;
42414;SDS011;28058;46.344;17.786;2023-09-18T06:41:54;12.10;;;9.35;;
42414;SDS011;28058;46.344;17.786;2023-09-18T06:44:21;13.50;;;9.85;;
42414;SDS011;28058;46.344;17.786;2023-09-18T06:46:50;12.60;;;9.48;;
42414;SDS011;28058;46.344;17.786;2023-09-18T06:49:17;12.85;;;9.30;;
42414;SDS011;28058;46.344;17.786;2023-09-18T06:51:46;11.60;;;9.77;;
42414;SDS011;28058;46.344;17.786;2023-09-18T06:54:13;13.88;;;9.85;;
42414;SDS011;28058;46.344;17.786;2023-09-18T06:56:40;14.55;;;9.82;;
42414;SDS011;28058;46.344;17.786;2023-09-18T06:59:08;10.73;;;9.18;;
42414;SDS011;28058;46.344;17.786;2023-09-18T07:01:35;11.55;;;9.85;;
42414;SDS011;28058;46.344;17.786;2023-09-18T07:04:02;11.20;;;9.35;;
42414;SDS011;28058;46.344;17.786;2023-09-18T07:06:31;11.05;;;9.85;;
42414;SDS011;28058;46.344;17.786;2023-09-18T07:08:58;10.40;;;8.63;;
42414;SDS011;28058;46.344;17.786;2023-09-18T07:11:26;13.60;;;8.65;;
42414;SDS011;28058;46.344;17.786;2023-09-18T07:13:53;10.68;;;8.77;;
42414;SDS011;28058;46.344;17.786;2023-09-18T07:16:20;12.02;;;8.88;;
42414;SDS011;28058;46.344;17.786;2023-09-18T07:18:47;10.38;;;9.13;;
42414;SDS011;28058;46.344;17.786;2023-09-18T07:21:14;11.18;;;8.98;;
42414;SDS011;28058;46.344;17.786;2023-09-18T07:23:41;10.07;;;8.93;;
42414;SDS011;28058;46.344;17.786;2023-09-18T07:26:08;13.07;;;9.07;;
42414;SDS011;28058;46.344;17.786;2023-09-18T07:28:35;10.57;;;9.18;;
42414;SDS011;28058;46.344;17.786;2023-09-18T07:31:04;10.30;;;9.20;;
42414;SDS011;28058;46.344;17.786;2023-09-18T07:33:35;12.15;;;9.95;;
42414;SDS011;28058;46.344;17.786;2023-09-18T07:36:02;11.00;;;8.73;;
42414;SDS011;28058;46.344;17.786;2023-09-18T07:38:30;15.15;;;9.38;;
42414;SDS011;28058;46.344;17.786;2023-09-18T07:40:58;11.98;;;9.13;;
42414;SDS011;28058;46.344;17.786;2023-09-18T09:42:17;15.10;;;13.48;;
42414;SDS011;28058;46.344;17.786;2023-09-18T09:45:00;13.50;;;12.10;;
42414;SDS011;28058;46.344;17.786;2023-09-18T09:47:36;15.63;;;13.77;;
42414;SDS011;28058;46.344;17.786;2023-09-18T09:50:10;15.88;;;12.60;;
42414;SDS011;28058;46.344;17.786;2023-09-18T09:52:43;13.88;;;12.48;;
42414;SDS011;28058;46.344;17.786;2023-09-18T09:55:27;15.27;;;13.73;;
42414;SDS011;28058;46.344;17.786;2023-09-18T09:57:56;16.15;;;14.18;;
42414;SDS011;28058;46.344;17.786;2023-09-18T10:00:32;16.35;;;14.68;;
42414;SDS011;28058;46.344;17.786;2023-09-18T10:03:10;16.38;;;14.60;;
42414;SDS011;28058;46.344;17.786;2023-09-18T10:05:40;16.20;;;14.60;;
42414;SDS011;28058;46.344;17.786;2023-09-18T10:10:48;17.92;;;15.93;;
42414;SDS011;28058;46.344;17.786;2023-09-18T10:13:20;18.15;;;16.08;;
42414;SDS011;28058;46.344;17.786;2023-09-18T10:15:55;20.20;;;17.60;;
42414;SDS011;28058;46.344;17.786;2023-09-18T10:18:39;17.58;;;15.75;;
42414;SDS011;28058;46.344;17.786;2023-09-18T10:21:17;18.80;;;17.10;;
42414;SDS011;28058;46.344;17.786;2023-09-18T10:26:35;19.80;;;18.00;;
42414;SDS011;28058;46.344;17.786;2023-09-18T10:29:07;19.83;;;17.95;;
42414;SDS011;28058;46.344;17.786;2023-09-18T10:31:39;20.02;;;18.20;;
42414;SDS011;28058;46.344;17.786;2023-09-18T10:34:07;21.30;;;19.27;;
42414;SDS011;28058;46.344;17.786;2023-09-18T10:36:37;21.23;;;19.30;;
42414;SDS011;28058;46.344;17.786;2023-09-18T10:39:09;21.40;;;19.35;;
42414;SDS011;28058;46.344;17.786;2023-09-18T10:41:39;19.27;;;17.38;;
42414;SDS011;28058;46.344;17.786;2023-09-18T10:44:08;19.13;;;17.42;;
42414;SDS011;28058;46.344;17.786;2023-09-18T14:14:38;15.80;;;11.63;;
42414;SDS011;28058;46.344;17.786;2023-09-18T14:17:06;12.50;;;10.35;;
42414;SDS011;28058;46.344;17.786;2023-09-18T14:19:34;12.15;;;9.80;;
42414;SDS011;28058;46.344;17.786;2023-09-18T14:22:01;14.05;;;10.55;;
42414;SDS011;28058;46.344;17.786;2023-09-18T14:24:30;12.30;;;10.75;;
42414;SDS011;28058;46.344;17.786;2023-09-18T14:27:00;13.93;;;11.03;;
42414;SDS011;28058;46.344;17.786;2023-09-18T14:29:28;12.30;;;10.30;;
42414;SDS011;28058;46.344;17.786;2023-09-18T14:31:57;12.73;;;11.13;;
42414;SDS011;28058;46.344;17.786;2023-09-18T14:34:24;13.00;;;10.95;;
42414;SDS011;28058;46.344;17.786;2023-09-18T16:27:41;10.65;;;4.57;;
42414;SDS011;28058;46.344;17.786;2023-09-18T16:30:11;12.52;;;6.05;;
42414;SDS011;28058;46.344;17.786;2023-09-18T16:32:38;14.07;;;5.07;;
42414;SDS011;28058;46.344;17.786;2023-09-18T16:35:06;12.63;;;5.15;;
42414;SDS011;28058;46.344;17.786;2023-09-18T16:37:33;8.88;;;4.80;;
42414;SDS011;28058;46.344;17.786;2023-09-18T16:40:02;9.98;;;4.97;;
42414;SDS011;28058;46.344;17.786;2023-09-18T16:42:29;14.02;;;4.75;;
42414;SDS011;28058;46.344;17.786;2023-09-18T16:44:56;9.27;;;3.75;;
